createdAt,value
2023-04-23T00:02:23.228Z,73.71
2023-04-23T00:04:53.095Z,74.04
2023-04-23T00:07:22.248Z,74.65
2023-04-23T00:09:52.917Z,75.89
2023-04-23T00:12:21.363Z,76.03
2023-04-23T00:14:48.518Z,77.38
2023-04-23T00:17:15.466Z,78.37
2023-04-23T00:19:42.560Z,78.76
2023-04-23T00:22:10.163Z,78.61
2023-04-23T00:24:39.501Z,78.82
2023-04-23T00:27:06.794Z,79.29
2023-04-23T00:29:33.916Z,80.05
2023-04-23T00:32:01.339Z,80.39
2023-04-23T00:34:28.527Z,80.32
2023-04-23T00:36:58.475Z,80.83
2023-04-23T00:39:25.344Z,81.12
2023-04-23T00:41:52.279Z,81.70
2023-04-23T00:44:19.328Z,81.06
2023-04-23T00:46:46.922Z,81.23
2023-04-23T00:49:14.632Z,81.43
2023-04-23T00:51:41.677Z,81.84
2023-04-23T00:54:08.580Z,82.23
2023-04-23T00:56:35.886Z,83.74
2023-04-23T00:59:03.720Z,83.54
2023-04-23T01:01:31.101Z,82.98
2023-04-23T01:03:58.934Z,83.70
2023-04-23T01:06:29.035Z,83.53
2023-04-23T01:08:56.396Z,82.15
2023-04-23T01:11:24.021Z,82.27
2023-04-23T01:13:50.958Z,82.51
2023-04-23T01:16:17.973Z,79.65
2023-04-23T01:18:45.166Z,78.75
2023-04-23T01:21:13.172Z,79.37
2023-04-23T01:23:40.973Z,79.34
2023-04-23T01:26:08.949Z,80.02
2023-04-23T01:28:36.578Z,79.88
2023-04-23T01:31:04.325Z,82.08
2023-04-23T01:33:32.097Z,81.76
2023-04-23T01:36:00.336Z,83.10
2023-04-23T01:38:31.274Z,83.14
2023-04-23T01:40:58.199Z,84.36
2023-04-23T01:43:25.539Z,83.58
2023-04-23T01:45:53.471Z,83.94
2023-04-23T01:48:21.000Z,84.57
2023-04-23T01:50:48.800Z,84.42
2023-04-23T01:53:15.803Z,83.65
2023-04-23T01:55:45.863Z,83.30
2023-04-23T01:58:13.121Z,83.02
2023-04-23T02:00:40.166Z,82.58
2023-04-23T02:03:07.308Z,82.56
2023-04-23T02:05:36.865Z,83.06
2023-04-23T02:08:03.905Z,83.07
2023-04-23T02:10:31.935Z,82.47
2023-04-23T02:13:02.193Z,83.33
2023-04-23T02:15:29.927Z,83.43
2023-04-23T02:17:56.873Z,83.39
2023-04-23T02:20:23.892Z,83.91
2023-04-23T02:22:51.299Z,83.36
2023-04-23T02:25:18.999Z,83.84
2023-04-23T02:27:45.834Z,84.13
2023-04-23T02:30:13.429Z,83.60
2023-04-23T02:32:41.972Z,83.76
2023-04-23T02:35:10.590Z,84.14
2023-04-23T02:37:37.719Z,85.08
2023-04-23T02:40:08.266Z,84.93
2023-04-23T02:42:35.383Z,85.26
2023-04-23T02:45:02.392Z,84.76
2023-04-23T02:47:32.229Z,84.49
2023-04-23T02:49:59.455Z,83.92
2023-04-23T02:52:26.307Z,84.37
2023-04-23T02:54:53.288Z,85.18
2023-04-23T02:57:23.410Z,84.17
2023-04-23T02:59:53.964Z,84.97
2023-04-23T03:02:21.183Z,84.53
2023-04-23T03:04:48.385Z,84.61
2023-04-23T03:07:17.619Z,84.27
2023-04-23T03:09:44.487Z,84.08
2023-04-23T03:12:11.341Z,83.73
2023-04-23T03:14:38.467Z,83.17
2023-04-23T03:17:06.632Z,83.67
2023-04-23T03:19:33.605Z,84.54
2023-04-23T03:22:04.100Z,84.38
2023-04-23T03:24:32.164Z,83.47
2023-04-23T03:27:00.950Z,83.38
2023-04-23T03:29:28.515Z,84.01
2023-04-23T03:31:55.514Z,83.55
2023-04-23T03:34:22.486Z,84.25
2023-04-23T03:36:49.965Z,84.03
2023-04-23T03:39:16.999Z,83.80
2023-04-23T03:41:44.004Z,82.95
2023-04-23T03:44:10.810Z,83.21
2023-04-23T03:46:38.444Z,83.19
2023-04-23T03:49:05.320Z,83.20
2023-04-23T03:51:35.743Z,82.57
2023-04-23T03:54:02.849Z,81.64
2023-04-23T03:56:30.960Z,81.28
2023-04-23T03:58:58.087Z,81.36
2023-04-23T04:01:24.885Z,82.03
2023-04-23T04:03:52.182Z,82.94
2023-04-23T04:06:19.155Z,82.49
2023-04-23T04:08:45.913Z,81.48
2023-04-23T04:11:12.712Z,81.93
2023-04-23T04:13:39.487Z,82.60
2023-04-23T04:16:06.658Z,82.64
2023-04-23T04:18:33.473Z,83.70
2023-04-23T04:21:00.866Z,84.11
2023-04-23T04:23:27.758Z,83.41
2023-04-23T04:25:56.792Z,82.79
2023-04-23T04:28:25.502Z,83.56
2023-04-23T04:30:57.814Z,82.91
2023-04-23T04:33:26.131Z,82.73
2023-04-23T04:35:53.035Z,83.15
2023-04-23T04:38:20.191Z,82.51
2023-04-23T04:40:47.104Z,82.76
2023-04-23T04:43:13.898Z,82.94
2023-04-23T04:45:40.662Z,83.79
2023-04-23T04:48:07.439Z,83.59
2023-04-23T04:50:34.600Z,83.86
2023-04-23T04:53:01.655Z,83.80
2023-04-23T04:55:29.483Z,82.79
2023-04-23T04:57:56.550Z,82.05
2023-04-23T05:00:28.167Z,82.01
2023-04-23T05:02:55.894Z,82.20
2023-04-23T05:05:24.401Z,82.14
2023-04-23T05:07:52.066Z,81.36
2023-04-23T05:10:19.046Z,80.00
2023-04-23T05:12:45.836Z,80.54
2023-04-23T05:15:14.340Z,80.83
2023-04-23T05:17:42.225Z,80.14
2023-04-23T05:20:11.179Z,79.58
2023-04-23T05:22:42.492Z,79.92
2023-04-23T05:25:12.220Z,78.33
2023-04-23T05:27:40.339Z,78.72
2023-04-23T05:30:09.780Z,78.56
2023-04-23T05:32:37.239Z,76.86
2023-04-23T05:35:04.426Z,76.36
2023-04-23T05:37:31.487Z,75.56
2023-04-23T05:39:58.606Z,75.01
2023-04-23T05:42:25.581Z,73.78
2023-04-23T05:44:52.746Z,74.75
2023-04-23T05:47:20.113Z,73.97
2023-04-23T05:49:47.104Z,73.44
2023-04-23T05:52:14.444Z,73.24
2023-04-23T05:54:42.500Z,72.15
2023-04-23T05:57:09.811Z,72.65
2023-04-23T05:59:37.243Z,72.63
2023-04-23T06:02:04.302Z,71.60
2023-04-23T06:04:31.882Z,69.27
2023-04-23T06:06:59.072Z,65.29
2023-04-23T06:09:26.213Z,62.53
2023-04-23T06:11:55.322Z,57.52
2023-04-23T06:14:22.234Z,54.33
2023-04-23T06:16:49.072Z,53.90
2023-04-23T06:19:15.850Z,52.69
2023-04-23T06:21:42.725Z,46.97
2023-04-23T06:24:09.730Z,48.14
2023-04-23T06:26:36.752Z,50.48
2023-04-23T06:29:03.975Z,49.39
2023-04-23T06:31:31.854Z,49.83
2023-04-23T06:33:59.097Z,51.69
2023-04-23T06:36:26.575Z,54.63
2023-04-23T06:38:53.474Z,55.99
2023-04-23T06:41:21.077Z,57.24
2023-04-23T06:43:48.587Z,58.82
2023-04-23T06:46:18.273Z,59.06
2023-04-23T06:48:45.207Z,59.11
2023-04-23T06:51:12.399Z,59.31
2023-04-23T06:53:42.255Z,58.04
2023-04-23T06:56:09.222Z,56.73
2023-04-23T06:58:36.456Z,53.74
2023-04-23T07:01:07.863Z,54.79
2023-04-23T07:03:34.924Z,58.79
2023-04-23T07:06:01.963Z,60.03
2023-04-23T07:08:29.344Z,63.57
2023-04-23T07:10:56.305Z,62.48
2023-04-23T07:13:24.460Z,61.83
2023-04-23T07:15:51.353Z,63.99
2023-04-23T07:18:21.329Z,64.26
2023-04-23T07:20:48.379Z,64.42
2023-04-23T07:23:15.364Z,63.79
2023-04-23T07:25:42.470Z,63.73
2023-04-23T07:28:09.320Z,59.55
2023-04-23T07:30:36.615Z,61.26
2023-04-23T07:33:03.720Z,60.34
2023-04-23T07:35:30.687Z,55.43
2023-04-23T07:37:58.294Z,53.42
2023-04-23T07:40:25.976Z,52.85
2023-04-23T07:42:52.816Z,53.74
2023-04-23T07:45:20.077Z,53.01
2023-04-23T07:47:48.053Z,53.36
2023-04-23T07:50:15.244Z,56.68
2023-04-23T07:52:44.301Z,57.99
2023-04-23T07:55:11.546Z,57.65
2023-04-23T07:57:38.522Z,58.11
2023-04-23T08:00:09.683Z,59.38
2023-04-23T08:02:36.886Z,57.42
2023-04-23T08:05:03.902Z,56.48
2023-04-23T08:07:30.884Z,55.69
2023-04-23T08:10:03.057Z,55.42
2023-04-23T08:12:31.161Z,54.87
2023-04-23T08:14:58.508Z,52.41
2023-04-23T08:17:25.653Z,54.43
2023-04-23T08:19:52.640Z,53.76
2023-04-23T08:22:22.544Z,54.60
2023-04-23T08:24:49.624Z,49.93
2023-04-23T08:27:16.662Z,49.11
2023-04-23T08:29:43.760Z,49.27
2023-04-23T08:32:10.916Z,48.30
2023-04-23T08:34:38.083Z,50.17
2023-04-23T08:37:05.189Z,49.31
2023-04-23T08:39:34.394Z,49.72
2023-04-23T08:42:10.678Z,49.33
2023-04-23T08:44:43.239Z,50.14
2023-04-23T08:47:12.706Z,46.18
2023-04-23T08:49:42.933Z,41.90
2023-04-23T08:52:22.262Z,38.52
2023-04-23T08:54:53.066Z,36.25
2023-04-23T08:57:20.213Z,33.47
2023-04-23T08:59:47.828Z,35.29
2023-04-23T09:02:16.173Z,39.27
2023-04-23T09:04:43.547Z,34.19
2023-04-23T09:07:11.784Z,33.43
2023-04-23T09:09:40.928Z,37.53
2023-04-23T09:12:09.796Z,38.28
2023-04-23T09:14:37.272Z,34.64
2023-04-23T09:17:04.467Z,34.19
2023-04-23T09:19:32.731Z,31.26
2023-04-23T09:22:02.468Z,31.91
2023-04-23T09:24:32.852Z,29.48
2023-04-23T09:26:59.840Z,29.93
2023-04-23T09:29:27.213Z,26.61
2023-04-23T09:32:08.522Z,25.56
2023-04-23T09:34:37.920Z,19.45
2023-04-23T09:37:08.201Z,16.51
2023-04-23T09:39:36.261Z,18.44
2023-04-23T09:42:05.678Z,14.90
2023-04-23T09:44:34.368Z,13.40
2023-04-23T09:47:10.488Z,13.55
2023-04-23T09:49:51.041Z,15.30
2023-04-23T09:52:18.724Z,13.24
2023-04-23T09:54:46.910Z,14.66
2023-04-23T09:57:14.211Z,15.01
2023-04-23T09:59:48.723Z,15.28
2023-04-23T10:02:19.351Z,16.05
2023-04-23T10:04:54.602Z,16.19
2023-04-23T10:07:25.880Z,15.21
2023-04-23T10:09:52.708Z,15.10
2023-04-23T10:12:41.115Z,13.83
2023-04-23T10:15:08.175Z,13.53
2023-04-23T10:17:38.878Z,15.42
2023-04-23T10:20:07.624Z,14.77
2023-04-23T10:22:36.066Z,14.50
2023-04-23T10:25:10.027Z,17.04
2023-04-23T10:27:54.052Z,16.75
2023-04-23T10:30:22.997Z,16.54
2023-04-23T10:32:50.724Z,15.61
2023-04-23T10:35:22.210Z,16.79
2023-04-23T10:37:49.717Z,15.66
2023-04-23T10:40:22.354Z,13.75
2023-04-23T10:42:50.595Z,11.63
2023-04-23T10:45:25.582Z,10.46
2023-04-23T10:47:57.661Z,12.12
2023-04-23T10:50:29.797Z,13.81
2023-04-23T10:52:58.318Z,15.07
2023-04-23T10:55:32.688Z,14.61
2023-04-23T10:58:02.716Z,12.40
2023-04-23T11:00:46.296Z,10.32
2023-04-23T11:03:41.558Z,12.79
2023-04-23T11:06:20.374Z,12.33
2023-04-23T11:08:54.640Z,14.28
2023-04-23T11:11:40.356Z,13.46
2023-04-23T11:14:16.737Z,15.22
2023-04-23T11:16:48.914Z,15.35
2023-04-23T11:19:20.557Z,13.77
2023-04-23T11:22:05.276Z,13.57
2023-04-23T11:24:47.208Z,14.66
2023-04-23T11:27:17.790Z,14.38
2023-04-23T11:29:49.431Z,14.78
2023-04-23T11:32:18.844Z,12.46
2023-04-23T11:34:47.571Z,12.12
2023-04-23T11:37:18.263Z,12.06
2023-04-23T11:39:47.781Z,14.38
2023-04-23T11:42:15.913Z,15.19
2023-04-23T11:44:46.940Z,13.14
2023-04-23T11:47:16.797Z,13.96
2023-04-23T11:49:45.250Z,14.29
2023-04-23T11:52:13.006Z,17.13
2023-04-23T11:54:43.016Z,17.79
2023-04-23T11:57:10.677Z,16.43
2023-04-23T11:59:38.016Z,16.06
2023-04-23T12:02:05.179Z,16.32
2023-04-23T12:04:33.550Z,19.22
2023-04-23T12:07:00.901Z,21.07
2023-04-23T12:09:29.506Z,20.56
2023-04-23T12:11:58.652Z,24.17
2023-04-23T12:14:30.890Z,23.21
2023-04-23T12:16:59.716Z,24.44
2023-04-23T12:19:29.417Z,23.89
2023-04-23T12:22:04.618Z,25.02
2023-04-23T12:24:49.400Z,29.10
2023-04-23T12:27:20.604Z,30.94
2023-04-23T12:29:51.557Z,33.00
2023-04-23T12:32:19.810Z,35.08
2023-04-23T12:34:56.650Z,34.02
2023-04-23T12:37:31.006Z,33.44
2023-04-23T12:39:59.757Z,34.91
2023-04-23T12:42:26.815Z,32.67
2023-04-23T12:44:55.975Z,33.43
2023-04-23T12:47:23.362Z,33.74
2023-04-23T12:49:53.713Z,32.82
2023-04-23T12:52:21.237Z,34.53
2023-04-23T12:54:52.386Z,34.61
2023-04-23T12:57:23.535Z,34.49
2023-04-23T12:59:51.015Z,34.50
2023-04-23T13:02:18.224Z,34.72
2023-04-23T13:04:45.122Z,34.73
2023-04-23T13:07:12.082Z,35.51
2023-04-23T13:09:39.028Z,34.21
2023-04-23T13:12:06.087Z,35.82
2023-04-23T13:14:32.932Z,34.45
2023-04-23T13:16:59.923Z,34.68
2023-04-23T13:19:27.222Z,35.60
2023-04-23T13:21:54.216Z,36.16
2023-04-23T13:24:21.353Z,36.00
2023-04-23T13:26:48.444Z,36.28
2023-04-23T13:29:16.362Z,33.40
2023-04-23T13:31:43.543Z,33.29
2023-04-23T13:34:10.713Z,31.95
2023-04-23T13:36:37.916Z,33.99
2023-04-23T13:39:04.892Z,36.97
2023-04-23T13:41:32.321Z,37.79
2023-04-23T13:43:59.880Z,34.69
2023-04-23T13:46:27.170Z,34.75
2023-04-23T13:48:56.679Z,34.91
2023-04-23T13:51:34.802Z,35.23
2023-04-23T13:54:03.516Z,37.65
2023-04-23T13:56:31.434Z,35.34
2023-04-23T13:59:18.751Z,33.72
2023-04-23T14:01:54.133Z,35.71
2023-04-23T14:04:24.315Z,35.77
2023-04-23T14:06:51.447Z,36.59
2023-04-23T14:09:19.401Z,36.77
2023-04-23T14:11:47.494Z,36.23
2023-04-23T14:14:14.262Z,35.88
2023-04-23T14:16:41.321Z,36.43
2023-04-23T14:19:08.409Z,39.34
2023-04-23T14:21:36.446Z,38.78
2023-04-23T14:24:10.854Z,39.21
2023-04-23T14:26:47.861Z,39.47
2023-04-23T14:29:38.786Z,38.83
2023-04-23T14:32:08.888Z,42.92
2023-04-23T14:34:36.673Z,44.61
2023-04-23T14:37:04.448Z,45.90
2023-04-23T14:39:31.403Z,43.51
2023-04-23T14:41:58.388Z,40.75
2023-04-23T14:44:27.206Z,41.77
2023-04-23T14:46:54.814Z,41.56
2023-04-23T14:49:22.206Z,41.86
2023-04-23T14:51:55.645Z,44.04
2023-04-23T14:54:23.080Z,46.73
2023-04-23T14:56:51.311Z,47.95
2023-04-23T14:59:18.559Z,49.19
2023-04-23T15:01:45.617Z,49.66
2023-04-23T15:04:12.908Z,49.04
2023-04-23T15:06:41.094Z,48.62
2023-04-23T15:09:08.676Z,47.99
2023-04-23T15:11:35.758Z,47.92
2023-04-23T15:14:06.846Z,48.12
2023-04-23T15:16:48.123Z,47.04
2023-04-23T15:19:20.406Z,48.33
2023-04-23T15:21:48.409Z,50.04
2023-04-23T15:24:16.153Z,48.43
2023-04-23T15:26:44.016Z,50.21
2023-04-23T15:29:11.017Z,50.21
2023-04-23T15:31:39.579Z,49.27
2023-04-23T15:34:09.490Z,50.16
2023-04-23T15:36:38.153Z,51.27
2023-04-23T15:39:07.689Z,51.33
2023-04-23T15:41:39.368Z,49.29
2023-04-23T15:44:13.475Z,48.97
2023-04-23T15:46:40.953Z,49.62
2023-04-23T15:49:08.121Z,48.87
2023-04-23T15:51:36.596Z,49.27
2023-04-23T15:54:03.440Z,49.44
2023-04-23T15:56:32.762Z,48.92
2023-04-23T15:59:02.163Z,49.42
2023-04-23T16:01:29.979Z,49.91
2023-04-23T16:04:08.638Z,49.46
2023-04-23T16:06:37.715Z,50.12
2023-04-23T16:09:07.740Z,51.22
2023-04-23T16:11:38.838Z,52.52
2023-04-23T16:14:06.690Z,50.98
2023-04-23T16:16:33.878Z,51.84
2023-04-23T16:19:03.111Z,51.84
2023-04-23T16:21:31.576Z,52.36
2023-04-23T16:23:58.663Z,50.75
2023-04-23T16:26:25.733Z,50.35
2023-04-23T16:29:05.749Z,50.91
2023-04-23T16:31:38.974Z,48.98
2023-04-23T16:34:06.456Z,47.94
2023-04-23T16:36:33.406Z,48.19
2023-04-23T16:39:00.178Z,50.86
2023-04-23T16:41:27.522Z,52.50
2023-04-23T16:43:55.710Z,53.75
2023-04-23T16:46:22.772Z,53.09
2023-04-23T16:48:49.809Z,52.68
2023-04-23T16:51:17.179Z,52.51
2023-04-23T16:53:44.189Z,52.81
2023-04-23T16:56:13.823Z,53.95
2023-04-23T16:58:40.808Z,53.46
2023-04-23T17:01:08.116Z,54.15
2023-04-23T17:03:36.713Z,53.71
2023-04-23T17:06:20.953Z,52.80
2023-04-23T17:08:48.044Z,53.72
2023-04-23T17:11:15.101Z,53.84
2023-04-23T17:13:45.003Z,54.06
2023-04-23T17:16:12.427Z,53.32
2023-04-23T17:18:39.408Z,53.81
2023-04-23T17:21:06.338Z,54.07
2023-04-23T17:23:33.182Z,54.02
2023-04-23T17:26:03.052Z,53.51
2023-04-23T17:28:32.343Z,52.96
2023-04-23T17:30:59.468Z,52.85
2023-04-23T17:33:26.918Z,52.57
2023-04-23T17:35:55.284Z,52.81
2023-04-23T17:38:22.718Z,52.58
2023-04-23T17:40:50.967Z,52.12
2023-04-23T17:43:19.429Z,52.80
2023-04-23T17:45:47.906Z,52.66
2023-04-23T17:48:15.777Z,53.72
2023-04-23T17:50:43.583Z,53.18
2023-04-23T17:53:11.009Z,53.59
2023-04-23T17:55:37.809Z,53.45
2023-04-23T17:58:09.296Z,52.23
2023-04-23T18:00:37.902Z,52.61
2023-04-23T18:03:05.549Z,52.48
2023-04-23T18:05:32.562Z,52.49
2023-04-23T18:07:59.972Z,53.32
2023-04-23T18:10:27.068Z,53.92
2023-04-23T18:12:56.272Z,55.42
2023-04-23T18:15:23.327Z,57.00
2023-04-23T18:17:50.650Z,56.55
2023-04-23T18:20:17.620Z,57.12
2023-04-23T18:22:44.637Z,58.50
2023-04-23T18:25:12.861Z,58.88
2023-04-23T18:27:41.860Z,59.67
2023-04-23T18:30:09.255Z,60.45
2023-04-23T18:32:41.972Z,61.47
2023-04-23T18:35:10.259Z,61.80
2023-04-23T18:37:42.753Z,62.62
2023-04-23T18:40:11.098Z,62.95
2023-04-23T18:42:38.052Z,62.89
2023-04-23T18:45:05.431Z,64.12
2023-04-23T18:47:38.776Z,64.84
2023-04-23T18:50:31.316Z,65.28
2023-04-23T18:52:58.291Z,64.61
2023-04-23T18:55:25.319Z,64.82
2023-04-23T18:57:56.266Z,67.44
2023-04-23T19:00:23.459Z,67.22
2023-04-23T19:02:50.813Z,67.66
2023-04-23T19:05:18.143Z,67.43
2023-04-23T19:07:45.167Z,69.02
2023-04-23T19:10:12.813Z,70.30
2023-04-23T19:12:39.758Z,68.92
2023-04-23T19:15:07.223Z,70.51
2023-04-23T19:17:35.309Z,70.68
2023-04-23T19:20:02.368Z,71.28
2023-04-23T19:22:29.374Z,69.90
2023-04-23T19:24:59.040Z,70.20
2023-04-23T19:27:26.366Z,69.10
2023-04-23T19:29:57.085Z,69.85
2023-04-23T19:32:24.852Z,70.32
2023-04-23T19:34:51.652Z,70.10
2023-04-23T19:37:18.838Z,71.15
2023-04-23T19:39:45.681Z,72.18
2023-04-23T19:42:12.613Z,73.54
2023-04-23T19:44:39.632Z,72.93
2023-04-23T19:47:09.191Z,74.71
2023-04-23T19:49:36.141Z,75.72
2023-04-23T19:52:04.499Z,77.43
2023-04-23T19:54:31.433Z,76.46
2023-04-23T19:56:58.518Z,76.77
2023-04-23T19:59:26.015Z,76.52
2023-04-23T20:01:53.224Z,76.49
2023-04-23T20:04:25.325Z,76.96
2023-04-23T20:06:52.602Z,76.21
2023-04-23T20:09:21.327Z,76.00
2023-04-23T20:11:48.650Z,76.78
2023-04-23T20:14:15.668Z,77.34
2023-04-23T20:16:43.185Z,77.68
2023-04-23T20:19:11.275Z,76.78
2023-04-23T20:21:39.437Z,78.31
2023-04-23T20:24:11.109Z,77.99
2023-04-23T20:26:39.566Z,77.89
2023-04-23T20:29:07.024Z,78.23
2023-04-23T20:31:34.268Z,78.60
2023-04-23T20:34:01.569Z,77.78
2023-04-23T20:36:30.803Z,75.35
2023-04-23T20:38:59.199Z,76.20
2023-04-23T20:41:31.782Z,75.53
2023-04-23T20:43:59.610Z,74.96
2023-04-23T20:46:30.320Z,74.92
2023-04-23T20:48:58.538Z,74.43
2023-04-23T20:51:25.716Z,75.31
2023-04-23T20:53:52.890Z,76.18
2023-04-23T20:56:20.174Z,75.26
2023-04-23T20:58:47.441Z,75.69
2023-04-23T21:01:14.354Z,76.15
2023-04-23T21:03:41.614Z,75.27
2023-04-23T21:06:11.585Z,75.47
2023-04-23T21:08:41.573Z,74.57
2023-04-23T21:11:14.915Z,75.64
2023-04-23T21:13:44.613Z,75.31
2023-04-23T21:16:12.057Z,75.86
2023-04-23T21:18:40.020Z,75.25
2023-04-23T21:21:08.281Z,75.05
2023-04-23T21:23:38.430Z,75.46
2023-04-23T21:26:05.997Z,75.19
2023-04-23T21:28:32.975Z,76.41
2023-04-23T21:31:07.924Z,75.96
2023-04-23T21:33:34.912Z,75.45
2023-04-23T21:36:01.826Z,74.33
2023-04-23T21:38:28.846Z,74.17
2023-04-23T21:40:55.901Z,74.93
2023-04-23T21:43:24.646Z,75.51
2023-04-23T21:45:51.982Z,76.72
2023-04-23T21:48:19.097Z,76.24
2023-04-23T21:50:46.118Z,76.79
2023-04-23T21:53:13.381Z,77.34
2023-04-23T21:55:40.233Z,76.82
2023-04-23T21:58:17.099Z,77.38
2023-04-23T22:00:45.429Z,76.96
2023-04-23T22:03:16.870Z,77.28
2023-04-23T22:05:57.755Z,79.11
2023-04-23T22:08:25.245Z,78.81
2023-04-23T22:10:52.256Z,78.04
2023-04-23T22:13:20.977Z,79.97
2023-04-23T22:15:51.485Z,80.64
2023-04-23T22:18:18.371Z,79.59
2023-04-23T22:20:48.545Z,79.96
2023-04-23T22:23:15.870Z,79.97
2023-04-23T22:25:42.989Z,79.54
2023-04-23T22:28:09.911Z,78.86
2023-04-23T22:30:37.160Z,80.07
2023-04-23T22:33:04.907Z,78.18
2023-04-23T22:35:32.458Z,78.78
2023-04-23T22:37:59.645Z,79.17
2023-04-23T22:40:26.527Z,78.77
2023-04-23T22:42:53.530Z,79.19
2023-04-23T22:45:20.572Z,80.16
2023-04-23T22:47:48.429Z,78.42
2023-04-23T22:50:15.472Z,78.77
2023-04-23T22:52:42.394Z,80.93
2023-04-23T22:55:14.999Z,82.18
2023-04-23T22:57:41.837Z,83.08
2023-04-23T23:00:11.523Z,83.84
2023-04-23T23:02:38.987Z,82.99
2023-04-23T23:05:06.818Z,83.36
2023-04-23T23:07:33.642Z,83.38
2023-04-23T23:10:00.545Z,84.58
2023-04-23T23:12:27.591Z,83.37
2023-04-23T23:14:54.373Z,82.68
2023-04-23T23:17:21.232Z,83.00
2023-04-23T23:19:48.103Z,84.45
2023-04-23T23:22:15.063Z,83.36
2023-04-23T23:24:42.266Z,82.73
2023-04-23T23:27:09.346Z,82.83
2023-04-23T23:29:36.549Z,83.55
2023-04-23T23:32:04.288Z,83.32
2023-04-23T23:34:31.281Z,85.38
2023-04-23T23:36:59.073Z,85.12
2023-04-23T23:39:27.613Z,86.27
2023-04-23T23:41:54.423Z,86.78
2023-04-23T23:44:22.441Z,86.70
2023-04-23T23:46:50.446Z,86.20
2023-04-23T23:49:17.311Z,87.19
2023-04-23T23:51:44.516Z,87.21
2023-04-23T23:54:14.559Z,87.53
2023-04-23T23:56:41.866Z,88.55
2023-04-23T23:59:08.989Z,88.58
